EDT,Max TemperatureF,Mean TemperatureF,Min TemperatureF,Max Dew PointF,MeanDew PointF,Min DewpointF,Max Humidity, Mean Humidity, Min Humidity, Max Sea Level PressureIn, Mean Sea Level PressureIn, Min Sea Level PressureIn, Max VisibilityMiles, Mean VisibilityMiles, Min VisibilityMiles, Max Wind SpeedMPH, Mean Wind SpeedMPH, Max Gust SpeedMPH,PrecipitationIn, CloudCover, Events, WindDirDegrees
2013-6-1,93,80,71,74,72,69,100,84,53,30.07,30.02,29.96,10,7,0,21,8,28,3.51,5,Fog-Rain-Thunderstorm,86
2013-6-2,89,80,71,74,73,71,100,87,57,30.02,29.98,29.91,10,8,0,12,3,,0.01,5,Fog-Rain,117
2013-6-3,86,78,73,76,73,72,97,84,65,30.01,29.95,29.92,10,10,7,13,4,,0.01,4,Rain,199
2013-6-4,86,78,73,74,73,71,97,89,70,30.04,30.02,29.96,10,8,0,17,4,22,0.46,6,Fog-Rain,189
2013-6-5,84,78,73,74,72,68,93,87,60,30.03,29.97,29.91,10,10,10,12,4,,0.07,6,Rain,100
2013-6-6,81,76,71,75,72,70,100,91,78,29.91,29.75,29.64,10,6,1,24,12,39,2.22,7,Rain,142
2013-6-7,87,79,71,74,72,70,100,82,59,29.98,29.87,29.79,10,10,9,13,8,18,0.01,3,Rain,233
2013-6-8,88,80,73,75,72,71,96,85,63,30.10,30.05,29.98,10,10,10,15,4,21,0.02,4,Rain,150
2013-6-9,91,80,71,75,72,70,100,85,52,30.12,30.08,30.03,10,9,1,14,5,23,0.65,4,Rain-Thunderstorm,107
2013-6-10,90,81,73,77,74,72,97,84,59,30.12,30.08,30.03,10,9,0,21,6,25,0.84,4,Fog-Rain,133
2013-6-11,89,80,73,76,73,68,96,85,61,30.15,30.09,30.04,10,8,1,22,2,37,0.76,3,Rain,107
2013-6-12,91,81,71,75,72,68,97,76,48,30.10,30.07,30.03,10,10,10,10,3,,0.00,1,,303
2013-6-13,91,82,73,75,72,69,97,78,50,30.06,30.00,29.93,10,10,9,14,3,16,0.43,0,,257
2013-6-14,88,80,73,75,73,69,97,79,59,29.97,29.93,29.90,10,10,10,15,7,22,0.00,3,,226
2013-6-15,89,82,75,77,75,73,100,86,61,30.08,30.01,29.93,10,8,1,14,5,18,1.09,6,Rain,105
2013-6-16,91,83,75,78,74,72,94,80,53,30.11,30.08,30.02,10,10,10,15,5,,0.00,6,Rain,107
2013-6-17,91,82,73,76,74,72,97,80,55,30.09,30.05,30.00,10,10,7,10,3,17,0.00,3,,229
2013-6-18,91,82,73,76,73,72,97,77,57,30.07,30.04,29.99,10,9,5,14,5,21,0.00,1,,227
2013-6-19,90,82,73,76,74,71,100,84,57,30.06,30.03,29.99,10,10,6,10,2,,0.03,3,Rain,228
2013-6-20,91,81,71,75,71,67,100,77,44,30.10,30.07,30.03,10,9,2,12,2,24,0.01,1,,243
2013-6-21,90,78,69,73,70,67,97,83,61,30.15,30.11,30.06,10,8,1,26,5,38,0.64,4,Rain-Thunderstorm,27
2013-6-22,89,80,71,75,72,70,97,84,55,30.14,30.11,30.07,10,8,2,14,4,18,0.25,4,Rain-Thunderstorm,135
2013-6-23,93,82,73,74,72,69,96,77,48,30.16,30.12,30.09,10,10,10,18,5,23,0.00,1,,95
2013-6-24,93,82,73,75,73,70,97,77,48,30.21,30.14,30.09,10,10,10,12,5,20,0.02,2,Rain,99
2013-6-25,93,82,73,74,71,65,96,71,41,30.17,30.11,30.04,10,10,10,9,4,,0.00,1,,111
2013-6-26,95,83,73,77,72,69,97,82,47,30.10,30.06,30.02,10,8,2,14,4,18,0.40,3,Rain-Thunderstorm,146
2013-6-27,91,80,71,76,73,69,96,81,57,30.07,30.02,29.97,10,9,0,10,3,,0.87,2,Rain,167
2013-6-28,90,82,73,76,74,73,97,80,61,29.99,29.93,29.86,10,10,9,16,6,24,0.00,1,,218
2013-6-29,86,80,75,76,74,71,94,84,65,29.90,29.86,29.82,10,9,2,14,6,22,0.12,2,Rain,196
2013-6-30,86,80,75,76,74,70,100,92,74,29.89,29.85,29.82,10,8,0,25,7,46,2.12,4,Fog-Rain,154